createdAt,value
2023-02-09T00:00:07.061Z,10.57
2023-02-09T00:03:21.591Z,11.73
2023-02-09T00:06:30.131Z,11.63
2023-02-09T00:09:35.538Z,11.20
2023-02-09T00:12:53.558Z,9.18
2023-02-09T00:16:01.991Z,10.80
2023-02-09T00:19:10.188Z,10.00
2023-02-09T00:22:15.455Z,11.70
2023-02-09T00:25:21.192Z,12.73
2023-02-09T00:28:26.595Z,10.60
2023-02-09T00:31:32.228Z,11.13
2023-02-09T00:34:41.304Z,11.50
2023-02-09T00:37:46.508Z,10.27
2023-02-09T00:40:52.375Z,10.27
2023-02-09T00:43:58.946Z,11.90
2023-02-09T00:47:04.876Z,11.95
2023-02-09T00:50:13.159Z,12.13
2023-02-09T00:56:23.951Z,11.45
2023-02-09T00:59:29.793Z,11.68
2023-02-09T01:02:35.359Z,12.23
2023-02-09T01:05:44.823Z,11.30
2023-02-09T01:08:50.978Z,11.63
2023-02-09T01:11:56.650Z,10.77
2023-02-09T01:15:02.130Z,10.15
2023-02-09T01:18:10.324Z,12.45
2023-02-09T01:21:19.243Z,11.50
2023-02-09T01:24:24.828Z,12.23
2023-02-09T01:27:30.192Z,13.52
2023-02-09T01:30:37.817Z,16.08
2023-02-09T01:33:43.400Z,11.85
2023-02-09T01:36:51.686Z,12.30
2023-02-09T01:39:56.910Z,12.10
2023-02-09T01:43:02.234Z,11.68
2023-02-09T01:46:08.034Z,13.35
2023-02-09T01:49:15.507Z,14.05
2023-02-09T01:52:26.454Z,13.93
2023-02-09T01:55:33.495Z,17.70
2023-02-09T01:58:38.760Z,15.30
2023-02-09T02:01:44.753Z,11.15
2023-02-09T02:04:50.585Z,11.27
2023-02-09T02:08:01.641Z,16.85
2023-02-09T02:11:07.892Z,12.07
2023-02-09T02:14:28.564Z,15.23
2023-02-09T02:17:55.339Z,13.68
2023-02-09T02:21:20.842Z,14.52
2023-02-09T02:24:46.803Z,14.90
2023-02-09T02:28:01.204Z,14.13
2023-02-09T02:31:14.436Z,11.40
2023-02-09T02:34:24.520Z,14.20
2023-02-09T02:37:50.507Z,16.85
2023-02-09T02:41:00.822Z,17.88
2023-02-09T02:44:08.906Z,15.48
2023-02-09T02:47:16.382Z,18.42
2023-02-09T02:50:27.323Z,14.00
2023-02-09T02:53:34.190Z,14.68
2023-02-09T02:56:40.467Z,13.23
2023-02-09T02:59:48.295Z,15.80
2023-02-09T03:02:56.441Z,17.98
2023-02-09T03:06:06.186Z,16.25
2023-02-09T03:09:11.763Z,14.95
2023-02-09T03:12:20.011Z,13.80
2023-02-09T03:15:30.873Z,15.50
2023-02-09T03:18:39.465Z,17.33
2023-02-09T03:21:54.998Z,16.75
2023-02-09T03:25:03.699Z,14.60
2023-02-09T03:28:11.665Z,16.33
2023-02-09T03:31:17.621Z,15.97
2023-02-09T03:34:23.111Z,17.27
2023-02-09T03:37:31.454Z,18.35
2023-02-09T03:40:37.416Z,15.63
2023-02-09T03:43:55.241Z,16.83
2023-02-09T03:47:01.546Z,16.27
2023-02-09T03:50:07.169Z,15.57
2023-02-09T03:53:15.407Z,18.65
2023-02-09T03:56:20.867Z,24.33
2023-02-09T03:59:26.636Z,23.52
2023-02-09T04:02:32.258Z,19.75
2023-02-09T04:05:37.480Z,16.40
2023-02-09T04:08:46.197Z,17.65
2023-02-09T04:11:52.253Z,19.08
2023-02-09T04:14:57.890Z,19.73
2023-02-09T04:18:03.317Z,20.15
2023-02-09T04:21:08.906Z,17.63
2023-02-09T04:24:17.338Z,18.75
2023-02-09T04:27:22.716Z,18.25
2023-02-09T04:30:28.526Z,19.60
2023-02-09T04:33:34.196Z,17.70
2023-02-09T04:36:39.576Z,19.13
2023-02-09T04:39:47.846Z,19.83
2023-02-09T04:42:53.318Z,18.42
2023-02-09T04:45:58.869Z,16.75
2023-02-09T04:49:04.521Z,23.13
2023-02-09T04:52:09.905Z,20.17
2023-02-09T04:55:17.864Z,21.88
2023-02-09T04:58:36.032Z,23.00
2023-02-09T05:01:41.561Z,18.92
2023-02-09T05:04:46.758Z,19.42
2023-02-09T05:07:52.049Z,20.55
2023-02-09T05:11:00.288Z,18.60
2023-02-09T05:14:05.556Z,19.23
2023-02-09T05:17:11.158Z,20.60
2023-02-09T05:20:16.814Z,18.10
2023-02-09T05:23:21.828Z,20.85
2023-02-09T05:26:29.961Z,20.95
2023-02-09T05:29:35.017Z,18.92
2023-02-09T05:32:40.660Z,18.83
2023-02-09T05:35:46.164Z,19.92
2023-02-09T05:38:51.623Z,18.23
2023-02-09T05:42:11.800Z,17.65
2023-02-09T05:45:17.438Z,22.02
2023-02-09T05:48:22.643Z,20.48
2023-02-09T05:51:28.238Z,19.90
2023-02-09T05:54:34.130Z,17.77
2023-02-09T05:57:42.508Z,17.48
2023-02-09T06:00:48.041Z,16.05
2023-02-09T06:03:53.797Z,16.10
2023-02-09T06:06:59.805Z,11.90
2023-02-09T06:10:05.257Z,15.38
2023-02-09T06:13:13.537Z,15.15
2023-02-09T06:16:18.955Z,11.82
2023-02-09T06:19:24.684Z,13.60
2023-02-09T06:22:31.893Z,13.23
2023-02-09T06:25:37.561Z,13.10
2023-02-09T06:28:45.697Z,15.20
2023-02-09T06:31:51.499Z,13.82
2023-02-09T06:34:57.002Z,20.60
2023-02-09T06:38:02.497Z,18.15
2023-02-09T06:41:08.154Z,15.45
2023-02-09T06:44:16.306Z,13.45
2023-02-09T06:47:21.479Z,16.25
2023-02-09T06:50:26.750Z,20.25
2023-02-09T06:53:32.284Z,19.48
2023-02-09T06:56:37.909Z,20.27
2023-02-09T06:59:45.785Z,13.68
2023-02-09T07:02:51.276Z,11.40
2023-02-09T07:05:56.680Z,14.43
2023-02-09T07:09:01.869Z,15.20
2023-02-09T07:12:07.783Z,17.10
2023-02-09T07:15:16.501Z,15.57
2023-02-09T07:18:21.747Z,16.58
2023-02-09T07:21:27.112Z,18.13
2023-02-09T07:24:32.288Z,21.25
2023-02-09T07:27:37.971Z,20.38
2023-02-09T07:30:46.638Z,22.05
2023-02-09T07:33:52.608Z,24.17
2023-02-09T07:36:58.151Z,22.17
2023-02-09T07:40:03.681Z,21.92
2023-02-09T07:43:09.360Z,20.45
2023-02-09T07:46:18.600Z,20.30
2023-02-09T07:49:24.127Z,24.25
2023-02-09T07:52:29.708Z,24.80
2023-02-09T07:55:35.039Z,20.90
2023-02-09T07:58:40.531Z,23.67
2023-02-09T08:01:48.636Z,22.45
2023-02-09T08:04:53.989Z,23.05
2023-02-09T08:07:59.199Z,20.90
2023-02-09T08:11:05.752Z,19.58
2023-02-09T08:14:13.653Z,25.75
2023-02-09T08:17:24.732Z,21.90
2023-02-09T08:20:31.154Z,25.17
2023-02-09T08:23:40.355Z,33.40
2023-02-09T08:26:45.947Z,26.80
2023-02-09T08:29:51.536Z,25.17
2023-02-09T08:32:59.487Z,24.38
2023-02-09T08:36:05.374Z,25.35
2023-02-09T08:39:10.334Z,27.95
2023-02-09T08:42:16.090Z,26.33
2023-02-09T08:45:21.808Z,34.90
2023-02-09T08:48:29.962Z,30.15
2023-02-09T08:51:35.216Z,28.40
2023-02-09T08:54:40.433Z,25.83
2023-02-09T08:57:46.222Z,25.50
2023-02-09T09:00:51.789Z,31.50
2023-02-09T09:03:59.922Z,23.77
2023-02-09T09:07:05.696Z,25.30
2023-02-09T09:10:11.914Z,24.15
2023-02-09T09:13:18.045Z,25.58
2023-02-09T09:16:24.503Z,25.67
2023-02-09T09:19:32.703Z,26.13
2023-02-09T09:22:38.243Z,29.73
2023-02-09T09:25:44.127Z,29.35
2023-02-09T09:28:52.576Z,25.45
2023-02-09T09:31:57.818Z,28.20
2023-02-09T09:35:06.418Z,27.52
2023-02-09T09:38:11.637Z,25.90
2023-02-09T09:41:21.819Z,27.13
2023-02-09T09:44:30.961Z,29.88
2023-02-09T09:47:39.792Z,29.75
2023-02-09T09:50:48.190Z,47.17
2023-02-09T09:53:54.531Z,42.80
2023-02-09T09:57:00.029Z,70.60
2023-02-09T10:00:06.270Z,42.35
2023-02-09T10:03:16.837Z,25.38
2023-02-09T10:06:25.949Z,23.95
2023-02-09T10:09:38.338Z,19.98
2023-02-09T10:12:47.067Z,25.17
2023-02-09T10:15:53.244Z,21.88
2023-02-09T10:18:59.882Z,20.65
2023-02-09T10:22:08.564Z,24.35
2023-02-09T10:28:22.215Z,20.52
2023-02-09T10:31:36.573Z,22.60
2023-02-09T10:34:45.340Z,20.80
2023-02-09T10:37:58.391Z,20.85
2023-02-09T10:41:04.068Z,17.38
2023-02-09T10:44:12.185Z,17.88
2023-02-09T10:47:28.868Z,16.85
2023-02-09T10:50:34.236Z,15.88
2023-02-09T10:53:44.251Z,18.25
2023-02-09T10:56:51.051Z,17.48
2023-02-09T10:59:57.705Z,15.00
2023-02-09T11:03:04.813Z,15.07
2023-02-09T11:06:14.374Z,15.18
2023-02-09T11:09:23.569Z,15.32
2023-02-09T11:12:29.903Z,14.45
2023-02-09T11:15:39.040Z,12.50
2023-02-09T11:18:46.455Z,19.45
2023-02-09T11:21:59.153Z,14.20
2023-02-09T11:25:16.470Z,17.13
2023-02-09T11:28:34.580Z,17.15
2023-02-09T11:34:50.685Z,17.55
2023-02-09T11:37:59.603Z,17.23
2023-02-09T11:41:29.304Z,16.55
2023-02-09T11:44:35.697Z,15.10
2023-02-09T11:47:49.631Z,16.90
2023-02-09T11:51:00.432Z,14.13
2023-02-09T11:54:08.513Z,18.02
2023-02-09T11:57:22.287Z,17.55
2023-02-09T12:00:30.868Z,13.38
2023-02-09T12:03:36.160Z,15.60
2023-02-09T12:06:44.293Z,15.57
2023-02-09T12:09:53.869Z,12.38
2023-02-09T12:13:06.439Z,10.30
2023-02-09T12:16:15.943Z,11.70
2023-02-09T12:19:28.157Z,10.95
2023-02-09T12:22:48.330Z,13.93
2023-02-09T12:25:55.752Z,10.88
2023-02-09T12:29:20.241Z,13.13
2023-02-09T12:32:31.053Z,8.30
2023-02-09T12:35:41.380Z,8.23
2023-02-09T12:38:53.557Z,10.65
2023-02-09T12:42:16.046Z,7.47
2023-02-09T12:45:37.431Z,6.00
2023-02-09T12:48:49.401Z,13.45
2023-02-09T12:51:57.387Z,7.20
2023-02-09T12:55:02.763Z,6.63
2023-02-09T12:58:23.164Z,8.30
2023-02-09T13:01:43.583Z,9.82
2023-02-09T13:04:59.580Z,4.95
2023-02-09T13:08:07.250Z,7.45
2023-02-09T13:11:21.681Z,7.20
2023-02-09T13:14:27.439Z,8.82
2023-02-09T13:17:36.594Z,7.22
2023-02-09T13:21:01.070Z,6.70
2023-02-09T13:24:07.767Z,5.80
2023-02-09T13:27:20.392Z,8.50
2023-02-09T13:30:29.907Z,8.82
2023-02-09T13:33:38.681Z,9.30
2023-02-09T13:36:49.154Z,10.75
2023-02-09T13:40:01.400Z,8.57
2023-02-09T13:43:17.448Z,12.05
2023-02-09T13:46:27.253Z,9.00
2023-02-09T13:49:33.173Z,10.60
2023-02-09T13:52:41.444Z,11.93
2023-02-09T13:55:49.039Z,9.55
2023-02-09T13:58:54.734Z,9.17
2023-02-09T14:02:00.401Z,4.47
2023-02-09T14:05:07.815Z,6.65
2023-02-09T14:08:16.725Z,6.75
2023-02-09T14:11:41.601Z,8.55
2023-02-09T14:15:04.776Z,7.88
2023-02-09T14:18:24.841Z,10.18
2023-02-09T14:21:34.684Z,7.75
2023-02-09T14:24:46.887Z,6.57
2023-02-09T14:27:52.609Z,8.75
2023-02-09T14:30:58.325Z,5.50
2023-02-09T14:34:03.629Z,8.30
2023-02-09T14:37:23.626Z,8.95
2023-02-09T14:40:37.702Z,11.05
2023-02-09T14:43:43.072Z,7.45
2023-02-09T14:46:52.844Z,6.88
2023-02-09T14:49:59.579Z,11.38
2023-02-09T14:53:08.076Z,7.72
2023-02-09T14:59:21.113Z,10.35
2023-02-09T15:02:27.428Z,12.45
2023-02-09T15:05:33.169Z,8.93
2023-02-09T15:08:40.651Z,11.85
2023-02-09T15:11:58.372Z,12.77
2023-02-09T15:15:06.438Z,8.65
2023-02-09T15:18:18.941Z,10.73
2023-02-09T15:21:24.347Z,8.23
2023-02-09T15:24:30.089Z,9.80
2023-02-09T15:27:37.206Z,10.57
2023-02-09T15:30:45.655Z,14.40
2023-02-09T15:33:51.250Z,9.68
2023-02-09T15:36:56.795Z,10.07
2023-02-09T15:40:04.971Z,13.43
2023-02-09T15:43:26.129Z,15.10
2023-02-09T15:46:46.633Z,9.48
2023-02-09T15:49:52.516Z,14.73
2023-02-09T15:52:58.372Z,9.00
2023-02-09T15:56:04.124Z,8.40
2023-02-09T15:59:09.732Z,9.38
2023-02-09T16:02:19.923Z,10.82
2023-02-09T16:05:25.900Z,8.73
2023-02-09T16:08:33.537Z,11.98
2023-02-09T16:11:41.406Z,8.03
2023-02-09T16:14:46.796Z,10.02
2023-02-09T16:17:55.239Z,9.07
2023-02-09T16:24:06.752Z,10.57
2023-02-09T16:27:16.174Z,7.35
2023-02-09T16:30:22.605Z,12.30
2023-02-09T16:33:30.981Z,12.30
2023-02-09T16:36:37.385Z,10.20
2023-02-09T16:39:42.434Z,9.35
2023-02-09T16:42:48.648Z,10.35
2023-02-09T16:46:03.266Z,8.38
2023-02-09T16:49:14.586Z,8.10
2023-02-09T16:52:21.124Z,8.20
2023-02-09T16:55:28.982Z,6.32
2023-02-09T16:58:35.144Z,8.63
2023-02-09T17:01:41.291Z,8.38
2023-02-09T17:04:49.119Z,6.10
2023-02-09T17:07:55.802Z,10.38
2023-02-09T17:11:01.663Z,6.72
2023-02-09T17:14:07.322Z,8.43
2023-02-09T17:17:13.351Z,7.95
2023-02-09T17:20:23.256Z,8.82
2023-02-09T17:23:29.284Z,6.85
2023-02-09T17:26:34.763Z,8.77
2023-02-09T17:29:40.077Z,8.75
2023-02-09T17:32:45.979Z,7.50
2023-02-09T17:36:23.682Z,12.40
2023-02-09T17:39:19.581Z,6.55
2023-02-09T17:42:25.976Z,11.95
2023-02-09T17:45:35.344Z,8.18
2023-02-09T17:48:41.061Z,7.43
2023-02-09T17:51:49.278Z,9.95
2023-02-09T17:54:54.805Z,9.20
2023-02-09T17:58:01.168Z,11.57
2023-02-09T18:01:09.111Z,7.28
2023-02-09T18:04:19.746Z,11.30
2023-02-09T18:07:27.637Z,10.55
2023-02-09T18:10:33.003Z,9.20
2023-02-09T18:13:38.484Z,14.02
2023-02-09T18:16:44.181Z,15.10
2023-02-09T18:19:50.244Z,9.38
2023-02-09T18:22:58.470Z,12.95
2023-02-09T18:26:04.312Z,9.45
2023-02-09T18:29:09.641Z,9.88
2023-02-09T18:32:15.855Z,11.32
2023-02-09T18:35:21.989Z,7.88
2023-02-09T18:38:30.417Z,12.95
2023-02-09T18:44:40.901Z,12.77
2023-02-09T18:47:46.904Z,11.90
2023-02-09T18:50:53.169Z,9.43
2023-02-09T18:54:01.591Z,7.50
2023-02-09T18:57:07.292Z,9.90
2023-02-09T19:00:14.351Z,9.77
2023-02-09T19:03:20.368Z,9.32
2023-02-09T19:06:26.056Z,10.07
2023-02-09T19:09:33.957Z,10.57
2023-02-09T19:12:39.907Z,9.45
2023-02-09T19:15:46.538Z,10.57
2023-02-09T19:18:52.183Z,9.35
2023-02-09T19:21:58.186Z,8.00
2023-02-09T19:25:06.499Z,21.30
2023-02-09T19:28:12.195Z,8.07
2023-02-09T19:31:18.671Z,10.95
2023-02-09T19:34:24.272Z,10.82
2023-02-09T19:37:29.461Z,10.88
2023-02-09T19:40:41.351Z,10.90
2023-02-09T19:43:46.772Z,5.93
2023-02-09T19:46:52.225Z,8.32
2023-02-09T19:49:58.187Z,4.90
2023-02-09T19:53:03.770Z,7.95
2023-02-09T19:56:17.198Z,3.80
2023-02-09T19:59:22.651Z,9.45
2023-02-09T20:02:28.589Z,4.65
2023-02-09T20:05:34.242Z,6.45
2023-02-09T20:08:40.079Z,5.72
2023-02-09T20:15:13.474Z,5.63
2023-02-09T20:18:19.966Z,6.35
2023-02-09T20:21:26.404Z,6.53
2023-02-09T20:24:31.815Z,4.90
2023-02-09T20:27:40.160Z,6.10
2023-02-09T20:30:46.338Z,6.38
2023-02-09T20:33:52.053Z,9.35
2023-02-09T20:36:57.744Z,6.82
2023-02-09T20:40:03.469Z,6.43
2023-02-09T20:43:25.169Z,9.82
2023-02-09T20:46:44.675Z,7.13
2023-02-09T20:49:49.824Z,6.35
2023-02-09T20:52:55.662Z,5.53
2023-02-09T20:56:01.271Z,7.97
2023-02-09T20:59:10.224Z,8.65
2023-02-09T21:02:16.173Z,5.63
2023-02-09T21:05:21.961Z,10.45
2023-02-09T21:08:27.075Z,10.80
2023-02-09T21:11:32.823Z,6.80
2023-02-09T21:14:45.348Z,8.88
2023-02-09T21:17:51.888Z,6.07
2023-02-09T21:20:58.955Z,9.73
2023-02-09T21:24:04.213Z,9.27
2023-02-09T21:27:09.996Z,8.02
2023-02-09T21:30:18.062Z,7.25
2023-02-09T21:33:23.206Z,10.85
2023-02-09T21:36:29.113Z,7.78
2023-02-09T21:39:34.562Z,7.57
2023-02-09T21:42:40.121Z,9.02
2023-02-09T21:45:48.298Z,8.82
2023-02-09T21:51:59.031Z,8.10
2023-02-09T21:55:04.898Z,10.60
2023-02-09T21:58:10.092Z,10.63
2023-02-09T22:01:18.286Z,11.55
2023-02-09T22:07:30.004Z,9.18
2023-02-09T22:10:35.299Z,8.98
2023-02-09T22:13:40.988Z,7.38
2023-02-09T22:16:49.057Z,10.32
2023-02-09T22:19:54.605Z,9.55
2023-02-09T22:23:00.123Z,7.65
2023-02-09T22:26:06.214Z,8.13
2023-02-09T22:29:12.815Z,8.55
2023-02-09T22:32:20.974Z,9.68
2023-02-09T22:35:26.267Z,10.35
2023-02-09T22:38:31.587Z,10.60
2023-02-09T22:41:37.056Z,9.32
2023-02-09T22:44:42.427Z,8.93
2023-02-09T22:47:50.418Z,10.32
2023-02-09T22:50:55.935Z,9.60
2023-02-09T22:54:01.920Z,7.85
2023-02-09T22:57:07.144Z,10.25
2023-02-09T23:00:14.645Z,10.23
2023-02-09T23:03:22.798Z,11.43
2023-02-09T23:06:30.469Z,9.05
2023-02-09T23:09:35.951Z,7.93
2023-02-09T23:12:41.100Z,8.35
2023-02-09T23:15:47.021Z,9.38
2023-02-09T23:18:55.943Z,7.82
2023-02-09T23:22:01.840Z,11.75
2023-02-09T23:25:07.059Z,8.77
2023-02-09T23:28:12.300Z,7.80
2023-02-09T23:31:19.138Z,7.05
2023-02-09T23:34:27.325Z,9.02
2023-02-09T23:37:38.590Z,10.68
2023-02-09T23:40:43.802Z,9.55
2023-02-09T23:43:49.553Z,8.63
2023-02-09T23:46:54.993Z,12.57
2023-02-09T23:50:03.025Z,11.32
2023-02-09T23:53:08.664Z,8.05
2023-02-09T23:56:15.815Z,9.00
2023-02-09T23:59:21.288Z,13.25
